sensor_id;sensor_type;location;lat;lon;timestamp;pressure;altitude;pressure_sealevel;temperature;humidity
37878;BME280;23715;53.652;8.516;2023-02-13T00:02:01;103953.62;;;9.70;100.00
37878;BME280;23715;53.652;8.516;2023-02-13T00:07:01;103946.48;;;9.82;100.00
37878;BME280;23715;53.652;8.516;2023-02-13T00:12:02;103930.61;;;9.18;100.00
37878;BME280;23715;53.652;8.516;2023-02-13T00:17:02;103930.61;;;9.18;100.00
37878;BME280;23715;53.652;8.516;2023-02-13T00:22:03;103935.45;;;9.50;100.00
37878;BME280;23715;53.652;8.516;2023-02-13T00:27:03;103940.86;;;9.48;100.00
37878;BME280;23715;53.652;8.516;2023-02-13T00:32:03;103929.44;;;9.70;100.00
37878;BME280;23715;53.652;8.516;2023-02-13T00:37:04;103928.48;;;9.71;100.00
37878;BME280;23715;53.652;8.516;2023-02-13T00:42:05;103925.84;;;9.69;100.00
37878;BME280;23715;53.652;8.516;2023-02-13T00:47:05;103928.36;;;9.75;100.00
37878;BME280;23715;53.652;8.516;2023-02-13T00:52:05;103936.12;;;9.85;100.00
37878;BME280;23715;53.652;8.516;2023-02-13T00:57:05;103944.80;;;9.80;100.00
37878;BME280;23715;53.652;8.516;2023-02-13T01:02:06;103954.24;;;9.78;100.00
37878;BME280;23715;53.652;8.516;2023-02-13T01:07:06;103941.63;;;9.80;100.00
37878;BME280;23715;53.652;8.516;2023-02-13T01:12:08;103942.58;;;9.79;100.00
37878;BME280;23715;53.652;8.516;2023-02-13T01:17:08;103943.66;;;9.73;100.00
37878;BME280;23715;53.652;8.516;2023-02-13T01:22:08;103937.81;;;9.74;100.00
37878;BME280;23715;53.652;8.516;2023-02-13T01:27:09;103946.64;;;9.64;100.00
37878;BME280;23715;53.652;8.516;2023-02-13T01:32:08;103954.33;;;9.75;100.00
37878;BME280;23715;53.652;8.516;2023-02-13T01:37:08;103949.86;;;9.75;100.00
37878;BME280;23715;53.652;8.516;2023-02-13T01:42:20;103941.69;;;9.50;100.00
37878;BME280;23715;53.652;8.516;2023-02-13T01:47:26;103947.94;;;9.66;100.00
37878;BME280;23715;53.652;8.516;2023-02-13T01:52:27;103944.02;;;9.76;100.00
37878;BME280;23715;53.652;8.516;2023-02-13T01:57:30;103932.39;;;9.75;100.00
37878;BME280;23715;53.652;8.516;2023-02-13T02:02:33;103928.30;;;9.64;100.00
37878;BME280;23715;53.652;8.516;2023-02-13T02:07:35;103930.47;;;9.66;100.00
37878;BME280;23715;53.652;8.516;2023-02-13T02:12:51;103928.70;;;9.65;100.00
37878;BME280;23715;53.652;8.516;2023-02-13T02:17:50;103925.97;;;9.66;100.00
37878;BME280;23715;53.652;8.516;2023-02-13T02:28:28;103925.65;;;9.49;100.00
37878;BME280;23715;53.652;8.516;2023-02-13T02:49:20;103909.89;;;9.65;100.00
37878;BME280;23715;53.652;8.516;2023-02-13T02:54:48;103904.94;;;9.52;100.00
37878;BME280;23715;53.652;8.516;2023-02-13T03:00:10;103905.24;;;9.56;100.00
37878;BME280;23715;53.652;8.516;2023-02-13T03:05:28;103903.45;;;9.42;100.00
37878;BME280;23715;53.652;8.516;2023-02-13T03:10:47;103905.99;;;9.33;100.00
37878;BME280;23715;53.652;8.516;2023-02-13T03:16:05;103909.30;;;9.42;100.00
37878;BME280;23715;53.652;8.516;2023-02-13T03:21:39;103902.34;;;9.49;100.00
37878;BME280;23715;53.652;8.516;2023-02-13T03:27:03;103895.31;;;9.45;100.00
37878;BME280;23715;53.652;8.516;2023-02-13T03:32:19;103901.28;;;9.40;100.00
37878;BME280;23715;53.652;8.516;2023-02-13T03:37:24;103899.95;;;9.53;100.00
37878;BME280;23715;53.652;8.516;2023-02-13T03:47:42;103904.61;;;9.62;100.00
37878;BME280;23715;53.652;8.516;2023-02-13T03:52:52;103914.37;;;9.23;100.00
37878;BME280;23715;53.652;8.516;2023-02-13T03:57:55;103916.43;;;9.14;100.00
37878;BME280;23715;53.652;8.516;2023-02-13T04:08:33;103927.28;;;9.40;100.00
37878;BME280;23715;53.652;8.516;2023-02-13T04:13:37;103931.52;;;8.72;100.00
37878;BME280;23715;53.652;8.516;2023-02-13T04:18:38;103930.59;;;8.90;100.00
37878;BME280;23715;53.652;8.516;2023-02-13T04:23:40;103941.78;;;8.42;100.00
37878;BME280;23715;53.652;8.516;2023-02-13T04:28:40;103952.30;;;8.49;100.00
37878;BME280;23715;53.652;8.516;2023-02-13T04:33:40;103941.13;;;7.97;100.00
37878;BME280;23715;53.652;8.516;2023-02-13T04:38:41;103958.55;;;8.32;100.00
37878;BME280;23715;53.652;8.516;2023-02-13T04:43:43;103950.64;;;8.27;100.00
37878;BME280;23715;53.652;8.516;2023-02-13T04:48:43;103942.53;;;7.94;100.00
37878;BME280;23715;53.652;8.516;2023-02-13T04:53:43;103935.91;;;7.55;100.00
37878;BME280;23715;53.652;8.516;2023-02-13T04:58:44;103943.34;;;7.23;100.00
37878;BME280;23715;53.652;8.516;2023-02-13T05:03:44;103942.97;;;7.40;100.00
37878;BME280;23715;53.652;8.516;2023-02-13T05:08:44;103942.23;;;7.32;100.00
37878;BME280;23715;53.652;8.516;2023-02-13T05:13:44;103936.80;;;7.36;100.00
37878;BME280;23715;53.652;8.516;2023-02-13T05:18:44;103937.05;;;7.81;100.00
37878;BME280;23715;53.652;8.516;2023-02-13T05:23:46;103930.14;;;8.43;100.00
37878;BME280;23715;53.652;8.516;2023-02-13T05:28:46;103915.61;;;8.33;100.00
37878;BME280;23715;53.652;8.516;2023-02-13T05:34:05;103904.12;;;8.28;100.00
37878;BME280;23715;53.652;8.516;2023-02-13T05:39:06;103900.39;;;8.34;100.00
37878;BME280;23715;53.652;8.516;2023-02-13T05:44:07;103901.28;;;8.67;100.00
37878;BME280;23715;53.652;8.516;2023-02-13T05:49:08;103898.94;;;8.55;100.00
37878;BME280;23715;53.652;8.516;2023-02-13T05:54:09;103903.11;;;8.32;100.00
37878;BME280;23715;53.652;8.516;2023-02-13T05:59:12;103906.98;;;8.38;100.00
37878;BME280;23715;53.652;8.516;2023-02-13T06:04:13;103912.72;;;8.41;100.00
37878;BME280;23715;53.652;8.516;2023-02-13T06:09:13;103912.63;;;8.28;100.00
37878;BME280;23715;53.652;8.516;2023-02-13T06:14:13;103918.83;;;8.30;100.00
37878;BME280;23715;53.652;8.516;2023-02-13T06:19:14;103923.37;;;8.44;100.00
37878;BME280;23715;53.652;8.516;2023-02-13T06:24:14;103933.15;;;8.78;100.00
37878;BME280;23715;53.652;8.516;2023-02-13T06:29:19;103917.29;;;8.85;100.00
37878;BME280;23715;53.652;8.516;2023-02-13T06:34:20;103927.17;;;8.99;100.00
37878;BME280;23715;53.652;8.516;2023-02-13T06:39:20;103930.92;;;9.09;100.00
37878;BME280;23715;53.652;8.516;2023-02-13T06:44:21;103922.55;;;9.18;100.00
37878;BME280;23715;53.652;8.516;2023-02-13T06:49:22;103926.73;;;9.13;100.00
37878;BME280;23715;53.652;8.516;2023-02-13T06:54:22;103934.28;;;9.01;100.00
37878;BME280;23715;53.652;8.516;2023-02-13T06:59:22;103925.98;;;9.08;100.00
37878;BME280;23715;53.652;8.516;2023-02-13T07:04:23;103937.19;;;8.93;100.00
37878;BME280;23715;53.652;8.516;2023-02-13T07:09:22;103940.59;;;8.68;100.00
37878;BME280;23715;53.652;8.516;2023-02-13T07:14:23;103943.07;;;8.91;100.00
37878;BME280;23715;53.652;8.516;2023-02-13T07:19:23;103948.80;;;8.93;100.00
37878;BME280;23715;53.652;8.516;2023-02-13T07:24:23;103958.44;;;9.01;100.00
37878;BME280;23715;53.652;8.516;2023-02-13T07:29:24;103961.69;;;8.82;100.00
37878;BME280;23715;53.652;8.516;2023-02-13T07:34:24;103965.30;;;8.96;100.00
37878;BME280;23715;53.652;8.516;2023-02-13T07:39:24;103961.33;;;9.09;100.00
37878;BME280;23715;53.652;8.516;2023-02-13T07:44:24;103951.50;;;9.08;100.00
37878;BME280;23715;53.652;8.516;2023-02-13T07:49:24;103954.88;;;9.00;100.00
37878;BME280;23715;53.652;8.516;2023-02-13T07:54:24;103958.16;;;8.95;100.00
37878;BME280;23715;53.652;8.516;2023-02-13T07:59:24;103961.44;;;8.75;100.00
37878;BME280;23715;53.652;8.516;2023-02-13T08:04:24;103955.23;;;8.88;100.00
37878;BME280;23715;53.652;8.516;2023-02-13T08:09:25;103963.28;;;8.88;100.00
37878;BME280;23715;53.652;8.516;2023-02-13T08:14:27;103963.84;;;8.99;100.00
37878;BME280;23715;53.652;8.516;2023-02-13T08:19:26;103956.47;;;9.07;100.00
37878;BME280;23715;53.652;8.516;2023-02-13T08:24:27;103958.37;;;9.18;100.00
37878;BME280;23715;53.652;8.516;2023-02-13T08:29:28;103971.69;;;8.92;100.00
37878;BME280;23715;53.652;8.516;2023-02-13T08:34:29;103971.42;;;9.01;100.00
37878;BME280;23715;53.652;8.516;2023-02-13T08:39:29;103976.41;;;9.13;100.00
37878;BME280;23715;53.652;8.516;2023-02-13T08:44:29;103967.66;;;9.22;100.00
37878;BME280;23715;53.652;8.516;2023-02-13T08:49:29;103964.08;;;8.76;100.00
37878;BME280;23715;53.652;8.516;2023-02-13T08:54:30;103973.00;;;8.77;100.00
37878;BME280;23715;53.652;8.516;2023-02-13T08:59:30;103975.31;;;9.21;100.00
37878;BME280;23715;53.652;8.516;2023-02-13T09:04:30;103969.15;;;9.32;100.00
37878;BME280;23715;53.652;8.516;2023-02-13T09:09:31;103963.86;;;9.29;100.00
37878;BME280;23715;53.652;8.516;2023-02-13T09:14:31;103960.34;;;9.42;100.00
37878;BME280;23715;53.652;8.516;2023-02-13T09:19:31;103959.58;;;9.51;100.00
37878;BME280;23715;53.652;8.516;2023-02-13T09:24:32;103959.88;;;9.27;100.00
37878;BME280;23715;53.652;8.516;2023-02-13T09:29:32;103962.04;;;9.44;100.00
37878;BME280;23715;53.652;8.516;2023-02-13T09:34:34;103973.64;;;9.60;100.00
37878;BME280;23715;53.652;8.516;2023-02-13T09:39:34;103975.97;;;9.57;100.00
37878;BME280;23715;53.652;8.516;2023-02-13T09:44:37;103959.34;;;9.59;100.00
37878;BME280;23715;53.652;8.516;2023-02-13T09:49:43;103968.98;;;9.51;100.00
37878;BME280;23715;53.652;8.516;2023-02-13T09:54:43;103975.93;;;9.58;100.00
37878;BME280;23715;53.652;8.516;2023-02-13T09:59:48;103974.47;;;9.62;100.00
37878;BME280;23715;53.652;8.516;2023-02-13T10:04:59;103982.96;;;9.63;100.00
37878;BME280;23715;53.652;8.516;2023-02-13T10:10:01;103986.08;;;9.64;100.00
37878;BME280;23715;53.652;8.516;2023-02-13T10:20:30;103979.86;;;9.75;100.00
37878;BME280;23715;53.652;8.516;2023-02-13T10:25:45;103980.66;;;9.92;100.00
37878;BME280;23715;53.652;8.516;2023-02-13T10:30:58;103981.10;;;9.65;100.00
37878;BME280;23715;53.652;8.516;2023-02-13T10:36:15;103977.77;;;9.71;100.00
37878;BME280;23715;53.652;8.516;2023-02-13T10:41:28;103968.29;;;9.73;100.00
37878;BME280;23715;53.652;8.516;2023-02-13T10:52:06;103961.48;;;9.76;100.00
37878;BME280;23715;53.652;8.516;2023-02-13T11:02:25;103949.09;;;9.85;100.00
37878;BME280;23715;53.652;8.516;2023-02-13T11:07:27;103938.59;;;9.77;100.00
37878;BME280;23715;53.652;8.516;2023-02-13T11:12:34;103938.64;;;9.89;100.00
37878;BME280;23715;53.652;8.516;2023-02-13T11:17:36;103931.95;;;10.01;100.00
37878;BME280;23715;53.652;8.516;2023-02-13T11:22:41;103934.08;;;10.05;100.00
37878;BME280;23715;53.652;8.516;2023-02-13T11:27:42;103934.30;;;9.99;100.00
37878;BME280;23715;53.652;8.516;2023-02-13T11:32:44;103924.46;;;9.84;100.00
37878;BME280;23715;53.652;8.516;2023-02-13T11:37:46;103925.36;;;9.85;100.00
37878;BME280;23715;53.652;8.516;2023-02-13T11:42:47;103915.27;;;9.91;100.00
37878;BME280;23715;53.652;8.516;2023-02-13T11:47:49;103908.48;;;10.06;100.00
37878;BME280;23715;53.652;8.516;2023-02-13T11:53:06;103911.95;;;10.10;100.00
37878;BME280;23715;53.652;8.516;2023-02-13T12:08:26;103901.22;;;9.83;100.00
37878;BME280;23715;53.652;8.516;2023-02-13T12:13:28;103896.54;;;9.88;100.00
37878;BME280;23715;53.652;8.516;2023-02-13T12:18:33;103895.41;;;9.95;100.00
37878;BME280;23715;53.652;8.516;2023-02-13T12:39:53;103871.70;;;9.82;100.00
37878;BME280;23715;53.652;8.516;2023-02-13T12:44:53;103881.94;;;9.70;100.00
37878;BME280;23715;53.652;8.516;2023-02-13T13:22:20;103857.42;;;10.43;100.00
37878;BME280;23715;53.652;8.516;2023-02-13T13:33:19;103856.55;;;10.43;100.00
37878;BME280;23715;53.652;8.516;2023-02-13T13:38:36;103932.80;;;10.55;100.00
37878;BME280;23715;53.652;8.516;2023-02-13T13:55:57;103847.09;;;10.19;100.00
37878;BME280;23715;53.652;8.516;2023-02-13T14:00:25;103840.89;;;10.17;100.00
37878;BME280;23715;53.652;8.516;2023-02-13T14:05:32;103837.77;;;10.41;100.00
37878;BME280;23715;53.652;8.516;2023-02-13T14:21:03;103831.23;;;10.23;100.00
37878;BME280;23715;53.652;8.516;2023-02-13T14:31:31;103812.68;;;10.52;100.00
37878;BME280;23715;53.652;8.516;2023-02-13T14:36:34;103808.30;;;10.50;100.00
37878;BME280;23715;53.652;8.516;2023-02-13T14:47:42;103819.49;;;10.51;100.00
37878;BME280;23715;53.652;8.516;2023-02-13T14:52:47;103815.21;;;10.57;100.00
37878;BME280;23715;53.652;8.516;2023-02-13T14:57:52;103810.89;;;10.53;100.00
37878;BME280;23715;53.652;8.516;2023-02-13T15:08:20;103808.55;;;10.44;100.00
37878;BME280;23715;53.652;8.516;2023-02-13T15:13:30;103797.20;;;10.47;100.00
37878;BME280;23715;53.652;8.516;2023-02-13T15:18:29;103811.69;;;10.31;100.00
37878;BME280;23715;53.652;8.516;2023-02-13T15:23:32;103811.47;;;10.49;100.00
37878;BME280;23715;53.652;8.516;2023-02-13T15:28:34;103809.39;;;10.68;100.00
37878;BME280;23715;53.652;8.516;2023-02-13T15:33:46;103807.42;;;10.61;100.00
37878;BME280;23715;53.652;8.516;2023-02-13T15:38:47;103810.93;;;10.63;100.00
37878;BME280;23715;53.652;8.516;2023-02-13T15:43:52;103809.30;;;10.59;100.00
37878;BME280;23715;53.652;8.516;2023-02-13T15:48:49;103804.25;;;10.62;100.00
37878;BME280;23715;53.652;8.516;2023-02-13T15:53:52;103793.93;;;10.51;100.00
37878;BME280;23715;53.652;8.516;2023-02-13T15:58:53;103800.88;;;10.33;100.00
37878;BME280;23715;53.652;8.516;2023-02-13T16:04:01;103801.12;;;10.25;100.00
37878;BME280;23715;53.652;8.516;2023-02-13T16:09:01;103813.45;;;10.07;100.00
37878;BME280;23715;53.652;8.516;2023-02-13T16:14:14;103818.98;;;10.03;100.00
37878;BME280;23715;53.652;8.516;2023-02-13T16:24:21;103814.42;;;10.05;100.00
37878;BME280;23715;53.652;8.516;2023-02-13T16:29:24;103807.98;;;9.97;100.00
37878;BME280;23715;53.652;8.516;2023-02-13T16:34:28;103807.94;;;9.99;100.00
37878;BME280;23715;53.652;8.516;2023-02-13T16:39:31;103801.36;;;9.94;100.00
37878;BME280;23715;53.652;8.516;2023-02-13T16:44:32;103802.81;;;9.79;100.00
37878;BME280;23715;53.652;8.516;2023-02-13T16:49:34;103804.52;;;9.68;100.00
37878;BME280;23715;53.652;8.516;2023-02-13T16:54:38;103801.58;;;9.63;100.00
37878;BME280;23715;53.652;8.516;2023-02-13T17:05:36;103803.24;;;9.53;100.00
37878;BME280;23715;53.652;8.516;2023-02-13T17:10:06;103807.94;;;9.73;100.00
37878;BME280;23715;53.652;8.516;2023-02-13T17:15:09;103815.20;;;9.83;100.00
37878;BME280;23715;53.652;8.516;2023-02-13T17:20:15;103823.39;;;9.53;100.00
37878;BME280;23715;53.652;8.516;2023-02-13T17:30:25;103818.01;;;9.67;100.00
37878;BME280;23715;53.652;8.516;2023-02-13T17:35:25;103815.60;;;9.84;100.00
37878;BME280;23715;53.652;8.516;2023-02-13T17:40:26;103826.50;;;9.54;100.00
37878;BME280;23715;53.652;8.516;2023-02-13T17:45:30;103824.52;;;9.60;100.00
37878;BME280;23715;53.652;8.516;2023-02-13T17:50:32;103817.10;;;9.54;100.00
37878;BME280;23715;53.652;8.516;2023-02-13T17:55:34;103814.51;;;9.38;100.00
37878;BME280;23715;53.652;8.516;2023-02-13T18:00:34;103822.47;;;9.54;100.00
37878;BME280;23715;53.652;8.516;2023-02-13T18:05:34;103812.64;;;9.53;100.00
37878;BME280;23715;53.652;8.516;2023-02-13T18:10:36;103813.73;;;9.48;100.00
37878;BME280;23715;53.652;8.516;2023-02-13T18:15:42;103817.10;;;9.28;100.00
37878;BME280;23715;53.652;8.516;2023-02-13T18:20:45;103824.30;;;9.26;100.00
37878;BME280;23715;53.652;8.516;2023-02-13T18:25:45;103830.33;;;9.06;100.00
37878;BME280;23715;53.652;8.516;2023-02-13T18:30:45;103825.77;;;9.49;100.00
37878;BME280;23715;53.652;8.516;2023-02-13T18:35:45;103824.34;;;9.39;100.00
37878;BME280;23715;53.652;8.516;2023-02-13T18:40:45;103820.31;;;9.52;100.00
37878;BME280;23715;53.652;8.516;2023-02-13T18:45:45;103822.09;;;9.38;100.00
37878;BME280;23715;53.652;8.516;2023-02-13T18:50:45;103825.20;;;9.26;100.00
37878;BME280;23715;53.652;8.516;2023-02-13T18:55:46;103824.47;;;9.34;100.00
37878;BME280;23715;53.652;8.516;2023-02-13T19:00:46;103819.05;;;9.23;100.00
37878;BME280;23715;53.652;8.516;2023-02-13T19:05:46;103825.54;;;9.15;100.00
37878;BME280;23715;53.652;8.516;2023-02-13T19:10:46;103817.53;;;9.14;100.00
37878;BME280;23715;53.652;8.516;2023-02-13T19:15:47;103818.31;;;9.17;100.00
37878;BME280;23715;53.652;8.516;2023-02-13T19:20:47;103811.59;;;9.17;100.00
37878;BME280;23715;53.652;8.516;2023-02-13T19:25:47;103810.17;;;9.21;100.00
37878;BME280;23715;53.652;8.516;2023-02-13T19:30:48;103801.63;;;9.08;100.00
37878;BME280;23715;53.652;8.516;2023-02-13T19:36:02;103800.76;;;9.07;100.00
37878;BME280;23715;53.652;8.516;2023-02-13T19:40:52;103805.30;;;9.05;100.00
37878;BME280;23715;53.652;8.516;2023-02-13T19:45:51;103802.19;;;9.04;100.00
37878;BME280;23715;53.652;8.516;2023-02-13T19:50:52;103796.42;;;9.03;100.00
37878;BME280;23715;53.652;8.516;2023-02-13T19:56:00;103787.62;;;8.98;100.00
37878;BME280;23715;53.652;8.516;2023-02-13T20:01:12;103798.42;;;8.82;100.00
37878;BME280;23715;53.652;8.516;2023-02-13T20:06:16;103802.13;;;8.77;100.00
37878;BME280;23715;53.652;8.516;2023-02-13T20:11:17;103797.20;;;8.64;100.00
37878;BME280;23715;53.652;8.516;2023-02-13T20:16:18;103799.73;;;8.68;100.00
37878;BME280;23715;53.652;8.516;2023-02-13T20:21:21;103800.28;;;8.79;100.00
37878;BME280;23715;53.652;8.516;2023-02-13T20:26:22;103802.25;;;8.59;100.00
37878;BME280;23715;53.652;8.516;2023-02-13T20:31:23;103801.86;;;8.57;100.00
37878;BME280;23715;53.652;8.516;2023-02-13T20:36:26;103800.00;;;8.59;100.00
37878;BME280;23715;53.652;8.516;2023-02-13T20:41:29;103810.30;;;8.59;100.00
37878;BME280;23715;53.652;8.516;2023-02-13T20:46:31;103812.30;;;8.20;100.00
37878;BME280;23715;53.652;8.516;2023-02-13T20:51:32;103806.34;;;8.42;100.00
37878;BME280;23715;53.652;8.516;2023-02-13T20:56:32;103810.97;;;8.51;100.00
37878;BME280;23715;53.652;8.516;2023-02-13T21:01:34;103817.09;;;8.56;100.00
37878;BME280;23715;53.652;8.516;2023-02-13T21:06:43;103822.08;;;8.37;100.00
37878;BME280;23715;53.652;8.516;2023-02-13T21:11:43;103821.41;;;8.46;100.00
37878;BME280;23715;53.652;8.516;2023-02-13T21:16:44;103834.83;;;8.46;100.00
37878;BME280;23715;53.652;8.516;2023-02-13T21:21:44;103828.70;;;8.40;100.00
37878;BME280;23715;53.652;8.516;2023-02-13T21:26:46;103823.08;;;8.50;100.00
37878;BME280;23715;53.652;8.516;2023-02-13T21:31:47;103819.91;;;8.35;100.00
37878;BME280;23715;53.652;8.516;2023-02-13T21:36:47;103830.70;;;8.32;100.00
37878;BME280;23715;53.652;8.516;2023-02-13T21:41:47;103823.85;;;8.38;100.00
37878;BME280;23715;53.652;8.516;2023-02-13T21:46:47;103823.28;;;8.58;100.00
37878;BME280;23715;53.652;8.516;2023-02-13T21:51:48;103819.58;;;8.77;100.00
37878;BME280;23715;53.652;8.516;2023-02-13T21:56:48;103813.06;;;8.56;100.00
37878;BME280;23715;53.652;8.516;2023-02-13T22:01:50;103810.06;;;8.67;100.00
37878;BME280;23715;53.652;8.516;2023-02-13T22:06:53;103813.97;;;8.70;100.00
37878;BME280;23715;53.652;8.516;2023-02-13T22:11:54;103809.98;;;8.84;100.00
37878;BME280;23715;53.652;8.516;2023-02-13T22:16:54;103803.47;;;8.77;100.00
37878;BME280;23715;53.652;8.516;2023-02-13T22:21:54;103802.45;;;8.82;100.00
37878;BME280;23715;53.652;8.516;2023-02-13T22:26:54;103802.36;;;8.85;100.00
37878;BME280;23715;53.652;8.516;2023-02-13T22:31:55;103803.08;;;8.76;100.00
37878;BME280;23715;53.652;8.516;2023-02-13T22:36:56;103805.56;;;8.68;100.00
37878;BME280;23715;53.652;8.516;2023-02-13T22:41:57;103817.05;;;8.73;100.00
37878;BME280;23715;53.652;8.516;2023-02-13T22:46:56;103818.86;;;8.57;100.00
37878;BME280;23715;53.652;8.516;2023-02-13T22:51:56;103824.31;;;8.69;100.00
37878;BME280;23715;53.652;8.516;2023-02-13T22:56:57;103825.09;;;8.58;100.00
37878;BME280;23715;53.652;8.516;2023-02-13T23:01:57;103832.31;;;8.56;100.00
37878;BME280;23715;53.652;8.516;2023-02-13T23:06:58;103837.16;;;8.58;100.00
37878;BME280;23715;53.652;8.516;2023-02-13T23:11:58;103838.47;;;8.59;100.00
37878;BME280;23715;53.652;8.516;2023-02-13T23:17:16;103839.33;;;8.60;100.00
37878;BME280;23715;53.652;8.516;2023-02-13T23:22:34;103839.31;;;8.45;100.00
37878;BME280;23715;53.652;8.516;2023-02-13T23:27:35;103833.73;;;8.53;100.00
37878;BME280;23715;53.652;8.516;2023-02-13T23:32:38;103835.50;;;8.54;100.00
37878;BME280;23715;53.652;8.516;2023-02-13T23:37:38;103838.41;;;8.46;100.00
37878;BME280;23715;53.652;8.516;2023-02-13T23:42:39;103837.11;;;8.45;100.00
37878;BME280;23715;53.652;8.516;2023-02-13T23:47:50;103842.28;;;8.51;100.00
37878;BME280;23715;53.652;8.516;2023-02-13T23:52:50;103840.80;;;8.55;100.00
37878;BME280;23715;53.652;8.516;2023-02-13T23:57:50;103847.18;;;8.51;100.00
